createdAt,value
2023-03-02T00:02:03.487Z,98538.84
2023-03-02T00:04:37.430Z,98537.00
2023-03-02T00:07:12.850Z,98542.19
2023-03-02T00:09:43.314Z,98538.97
2023-03-02T00:12:13.145Z,98539.75
2023-03-02T00:14:41.801Z,98523.72
2023-03-02T00:17:10.747Z,98536.34
2023-03-02T00:19:39.365Z,98539.31
2023-03-02T00:22:10.211Z,98546.75
2023-03-02T00:24:39.687Z,98552.63
2023-03-02T00:27:08.264Z,98550.16
2023-03-02T00:29:36.855Z,98567.94
2023-03-02T00:32:05.119Z,98564.41
2023-03-02T00:34:33.505Z,98557.59
2023-03-02T00:37:01.651Z,98555.09
2023-03-02T00:39:31.547Z,98556.22
2023-03-02T00:42:00.112Z,98568.59
2023-03-02T00:44:28.281Z,98582.53
2023-03-02T00:46:56.868Z,98575.25
2023-03-02T00:49:25.266Z,98587.41
2023-03-02T00:51:53.829Z,98584.69
2023-03-02T00:54:22.064Z,98583.94
2023-03-02T00:56:51.914Z,98585.38
2023-03-02T00:59:30.932Z,98588.25
2023-03-02T01:02:22.993Z,98587.91
2023-03-02T01:04:53.332Z,98576.44
2023-03-02T01:07:22.529Z,98568.09
2023-03-02T01:09:51.125Z,98564.94
2023-03-02T01:12:21.117Z,98557.06
2023-03-02T01:14:51.536Z,98567.63
2023-03-02T01:17:23.212Z,98575.31
2023-03-02T01:19:51.775Z,98579.94
2023-03-02T01:22:21.661Z,98579.31
2023-03-02T01:24:50.451Z,98583.13
2023-03-02T01:27:20.775Z,98590.75
2023-03-02T01:29:50.874Z,98586.88
2023-03-02T01:32:21.007Z,98598.78
2023-03-02T01:34:49.884Z,98599.50
2023-03-02T01:37:18.439Z,98597.13
2023-03-02T01:39:46.952Z,98590.03
2023-03-02T01:42:15.637Z,98590.81
2023-03-02T01:44:47.698Z,98582.44
2023-03-02T01:47:23.499Z,98588.56
2023-03-02T01:50:13.269Z,98597.31
2023-03-02T01:52:42.200Z,98615.47
2023-03-02T01:55:14.282Z,98609.38
2023-03-02T01:57:47.639Z,98606.88
2023-03-02T02:00:23.115Z,98598.31
2023-03-02T02:02:52.813Z,98603.03
2023-03-02T02:05:27.338Z,98606.91
2023-03-02T02:07:56.131Z,98606.53
2023-03-02T02:10:24.489Z,98612.97
2023-03-02T02:12:52.711Z,98616.16
2023-03-02T02:15:22.718Z,98610.31
2023-03-02T02:17:54.487Z,98634.38
2023-03-02T02:20:34.179Z,98616.56
2023-03-02T02:23:15.948Z,98631.94
2023-03-02T02:25:58.354Z,98632.47
2023-03-02T02:28:32.785Z,98616.25
2023-03-02T02:31:07.919Z,98589.53
2023-03-02T02:33:38.583Z,98586.59
2023-03-02T02:36:10.930Z,98598.63
2023-03-02T02:38:42.232Z,98608.50
2023-03-02T02:41:18.764Z,98620.38
2023-03-02T02:43:47.697Z,98608.44
2023-03-02T02:46:16.852Z,98635.88
2023-03-02T02:48:46.710Z,98614.09
2023-03-02T02:51:17.970Z,98630.31
2023-03-02T02:53:51.833Z,98641.28
2023-03-02T02:56:22.607Z,98643.44
2023-03-02T02:58:54.750Z,98629.47
2023-03-02T03:01:26.290Z,98645.09
2023-03-02T03:03:58.302Z,98648.38
2023-03-02T03:06:30.719Z,98627.38
2023-03-02T03:09:02.099Z,98619.72
2023-03-02T03:11:41.672Z,98619.66
2023-03-02T03:14:12.698Z,98632.72
2023-03-02T03:16:43.230Z,98629.38
2023-03-02T03:19:18.613Z,98650.19
2023-03-02T03:21:50.126Z,98647.88
2023-03-02T03:24:19.901Z,98636.00
2023-03-02T03:26:51.245Z,98646.84
2023-03-02T03:29:23.808Z,98658.78
2023-03-02T03:31:54.101Z,98651.94
2023-03-02T03:34:24.534Z,98670.81
2023-03-02T03:36:53.971Z,98664.44
2023-03-02T03:39:23.309Z,98671.53
2023-03-02T03:41:56.352Z,98655.63
2023-03-02T03:44:25.414Z,98644.13
2023-03-02T03:46:54.121Z,98642.41
2023-03-02T03:49:23.132Z,98643.66
2023-03-02T03:51:51.761Z,98638.28
2023-03-02T03:54:21.020Z,98632.06
2023-03-02T03:56:51.596Z,98626.41
2023-03-02T03:59:24.606Z,98637.78
2023-03-02T04:01:59.430Z,98613.56
2023-03-02T04:04:33.799Z,98624.38
2023-03-02T04:07:05.313Z,98649.19
2023-03-02T04:09:38.009Z,98625.13
2023-03-02T04:12:10.300Z,98629.56
2023-03-02T04:14:42.203Z,98625.47
2023-03-02T04:17:10.920Z,98651.56
2023-03-02T04:19:43.378Z,98649.34
2023-03-02T04:22:12.020Z,98645.16
2023-03-02T04:24:40.208Z,98640.03
2023-03-02T04:27:09.617Z,98638.81
2023-03-02T04:29:39.171Z,98643.63
2023-03-02T04:32:10.099Z,98647.41
2023-03-02T04:34:40.588Z,98650.84
2023-03-02T04:37:09.448Z,98663.13
2023-03-02T04:39:38.103Z,98659.16
2023-03-02T04:42:09.527Z,98667.09
2023-03-02T04:44:38.187Z,98679.13
2023-03-02T04:47:06.404Z,98696.91
2023-03-02T04:49:36.357Z,98672.84
2023-03-02T04:52:05.634Z,98678.03
2023-03-02T04:54:34.440Z,98684.88
2023-03-02T04:57:02.964Z,98683.78
2023-03-02T04:59:31.085Z,98686.69
2023-03-02T05:02:01.715Z,98701.44
2023-03-02T05:04:30.876Z,98694.03
2023-03-02T05:07:00.966Z,98704.78
2023-03-02T05:09:31.060Z,98729.84
2023-03-02T05:12:01.723Z,98723.19
2023-03-02T05:14:32.719Z,98727.06
2023-03-02T05:17:01.486Z,98736.22
2023-03-02T05:19:30.042Z,98740.78
2023-03-02T05:21:58.648Z,98728.78
2023-03-02T05:24:28.341Z,98728.56
2023-03-02T05:26:56.901Z,98730.59
2023-03-02T05:29:25.399Z,98731.34
2023-03-02T05:31:53.803Z,98744.13
2023-03-02T05:34:21.954Z,98730.94
2023-03-02T05:36:50.490Z,98722.34
2023-03-02T05:39:18.682Z,98735.16
2023-03-02T05:41:48.708Z,98727.88
2023-03-02T05:44:17.209Z,98728.09
2023-03-02T05:46:45.476Z,98708.19
2023-03-02T05:49:14.005Z,98726.31
2023-03-02T05:51:42.210Z,98724.78
2023-03-02T05:54:10.703Z,98732.75
2023-03-02T05:56:38.875Z,98734.94
2023-03-02T05:59:08.819Z,98724.66
2023-03-02T06:01:37.377Z,98734.19
2023-03-02T06:04:05.586Z,98722.84
2023-03-02T06:06:34.398Z,98737.47
2023-03-02T06:09:02.938Z,98741.59
2023-03-02T06:11:31.569Z,98736.06
2023-03-02T06:13:59.958Z,98731.59
2023-03-02T06:16:29.532Z,98732.06
2023-03-02T06:18:57.872Z,98736.63
2023-03-02T06:21:26.050Z,98730.25
2023-03-02T06:23:54.157Z,98742.63
2023-03-02T06:26:22.372Z,98745.66
2023-03-02T06:28:53.225Z,98738.41
2023-03-02T06:31:22.368Z,98746.63
2023-03-02T06:33:52.683Z,98721.59
2023-03-02T06:36:21.011Z,98733.75
2023-03-02T06:38:49.145Z,98737.38
2023-03-02T06:41:18.195Z,98742.19
2023-03-02T06:43:46.443Z,98746.53
2023-03-02T06:46:15.402Z,98730.22
2023-03-02T06:48:43.493Z,98721.84
2023-03-02T06:51:13.423Z,98724.50
2023-03-02T06:53:41.544Z,98726.47
2023-03-02T06:56:10.623Z,98719.06
2023-03-02T06:58:41.699Z,98730.69
2023-03-02T07:01:10.231Z,98741.88
2023-03-02T07:03:38.420Z,98726.34
2023-03-02T07:06:06.957Z,98721.31
2023-03-02T07:08:37.309Z,98730.91
2023-03-02T07:11:09.471Z,98729.75
2023-03-02T07:13:38.171Z,98724.25
2023-03-02T07:16:10.335Z,98713.75
2023-03-02T07:18:39.136Z,98712.28
2023-03-02T07:21:07.874Z,98715.41
2023-03-02T07:23:37.489Z,98699.84
2023-03-02T07:26:08.701Z,98700.53
2023-03-02T07:28:39.576Z,98704.34
2023-03-02T07:31:07.975Z,98701.72
2023-03-02T07:33:36.647Z,98708.78
2023-03-02T07:36:05.227Z,98718.88
2023-03-02T07:38:33.629Z,98720.22
2023-03-02T07:41:07.348Z,98720.00
2023-03-02T07:43:36.768Z,98710.22
2023-03-02T07:46:05.721Z,98716.28
2023-03-02T07:48:34.532Z,98707.34
2023-03-02T07:51:03.164Z,98712.19
2023-03-02T07:53:31.603Z,98725.78
2023-03-02T07:56:01.580Z,98723.56
2023-03-02T07:58:31.328Z,98720.09
2023-03-02T08:00:59.659Z,98730.78
2023-03-02T08:03:27.833Z,98728.44
2023-03-02T08:05:56.402Z,98718.75
2023-03-02T08:08:24.772Z,98720.09
2023-03-02T08:10:53.048Z,98712.22
2023-03-02T08:13:21.265Z,98716.31
2023-03-02T08:15:50.984Z,98720.94
2023-03-02T08:18:19.469Z,98713.84
2023-03-02T08:20:47.606Z,98706.41
2023-03-02T08:23:15.839Z,98702.88
2023-03-02T08:25:44.001Z,98698.31
2023-03-02T08:28:12.188Z,98697.69
2023-03-02T08:30:40.291Z,98719.81
2023-03-02T08:33:09.884Z,98699.38
2023-03-02T08:35:37.997Z,98694.06
2023-03-02T08:38:06.260Z,98691.50
2023-03-02T08:40:34.979Z,98695.38
2023-03-02T08:43:03.151Z,98695.16
2023-03-02T08:45:31.230Z,98699.34
2023-03-02T08:47:59.541Z,98700.56
2023-03-02T08:50:29.193Z,98708.06
2023-03-02T08:52:57.347Z,98707.53
2023-03-02T08:55:28.547Z,98704.84
2023-03-02T08:58:00.158Z,98717.22
2023-03-02T09:00:30.073Z,98707.75
2023-03-02T09:02:59.826Z,98699.59
2023-03-02T09:05:29.462Z,98711.06
2023-03-02T09:07:57.540Z,98712.34
2023-03-02T09:10:25.624Z,98703.41
2023-03-02T09:12:53.986Z,98704.69
2023-03-02T09:15:22.138Z,98703.41
2023-03-02T09:17:50.339Z,98716.81
2023-03-02T09:20:18.575Z,98710.59
2023-03-02T09:22:50.898Z,98708.88
2023-03-02T09:25:21.008Z,98710.00
2023-03-02T09:27:49.409Z,98693.19
2023-03-02T09:30:17.757Z,98689.63
2023-03-02T09:32:46.171Z,98692.47
2023-03-02T09:35:14.502Z,98687.59
2023-03-02T09:37:44.344Z,98680.16
2023-03-02T09:40:17.710Z,98682.19
2023-03-02T09:43:14.247Z,98667.41
2023-03-02T09:45:55.942Z,98671.50
2023-03-02T09:48:30.042Z,98690.06
2023-03-02T09:51:03.512Z,98670.44
2023-03-02T09:53:44.289Z,98671.47
2023-03-02T09:56:17.009Z,98656.56
2023-03-02T09:58:49.524Z,98659.97
2023-03-02T10:01:22.569Z,98660.28
2023-03-02T10:03:56.454Z,98657.19
2023-03-02T10:06:25.164Z,98649.69
2023-03-02T10:08:53.882Z,98644.09
2023-03-02T10:11:31.002Z,98650.75
2023-03-02T10:14:04.665Z,98652.53
2023-03-02T10:16:36.866Z,98640.69
2023-03-02T10:19:22.431Z,98637.44
2023-03-02T10:21:53.074Z,98630.28
2023-03-02T10:24:26.982Z,98628.13
2023-03-02T10:27:00.554Z,98627.53
2023-03-02T10:29:34.759Z,98629.63
2023-03-02T10:32:05.722Z,98633.38
2023-03-02T10:34:37.240Z,98634.84
2023-03-02T10:37:12.831Z,98616.66
2023-03-02T10:39:41.018Z,98621.91
2023-03-02T10:42:14.815Z,98612.56
2023-03-02T10:44:46.905Z,98597.06
2023-03-02T10:47:25.051Z,98605.16
2023-03-02T10:49:53.911Z,98608.69
2023-03-02T10:52:23.283Z,98599.75
2023-03-02T10:54:52.936Z,98597.09
2023-03-02T10:57:29.700Z,98584.53
2023-03-02T11:00:01.252Z,98571.59
2023-03-02T11:02:31.021Z,98568.63
2023-03-02T11:05:00.563Z,98571.00
2023-03-02T11:07:30.058Z,98555.81
2023-03-02T11:09:58.994Z,98542.38
2023-03-02T11:12:29.119Z,98548.19
2023-03-02T11:15:16.090Z,98537.22
2023-03-02T11:17:44.918Z,98522.88
2023-03-02T11:20:16.996Z,98521.63
2023-03-02T11:22:48.810Z,98513.25
2023-03-02T11:25:21.605Z,98502.22
2023-03-02T11:27:52.771Z,98513.56
2023-03-02T11:30:24.892Z,98515.38
2023-03-02T11:32:55.651Z,98506.56
2023-03-02T11:35:30.561Z,98501.00
2023-03-02T11:38:03.808Z,98508.25
2023-03-02T11:40:32.827Z,98511.69
2023-03-02T11:43:04.961Z,98501.16
2023-03-02T11:45:34.647Z,98488.09
2023-03-02T11:48:06.294Z,98490.53
2023-03-02T11:50:35.955Z,98504.91
2023-03-02T11:53:06.535Z,98501.13
2023-03-02T11:55:37.500Z,98520.06
2023-03-02T11:58:07.542Z,98504.72
2023-03-02T12:00:37.150Z,98510.75
2023-03-02T12:03:06.546Z,98513.69
2023-03-02T12:05:36.507Z,98503.25
2023-03-02T12:08:06.002Z,98515.63
2023-03-02T12:10:36.666Z,98522.03
2023-03-02T12:13:15.143Z,98519.47
2023-03-02T12:15:44.465Z,98505.19
2023-03-02T12:18:30.855Z,98516.91
2023-03-02T12:21:03.218Z,98519.47
2023-03-02T12:23:32.523Z,98527.09
2023-03-02T12:26:06.014Z,98504.78
2023-03-02T12:28:37.149Z,98487.56
2023-03-02T12:31:07.459Z,98493.69
2023-03-02T12:33:40.562Z,98465.59
2023-03-02T12:36:13.542Z,98465.19
2023-03-02T12:38:46.836Z,98454.84
2023-03-02T12:41:22.550Z,98445.75
2023-03-02T12:43:59.876Z,98447.94
2023-03-02T12:46:33.597Z,98449.81
2023-03-02T12:49:19.641Z,98444.66
2023-03-02T12:51:50.519Z,98432.03
2023-03-02T12:54:19.472Z,98431.22
2023-03-02T12:56:48.076Z,98412.41
2023-03-02T12:59:25.085Z,98421.09
2023-03-02T13:01:53.699Z,98413.25
2023-03-02T13:04:23.149Z,98412.84
2023-03-02T13:06:52.098Z,98419.69
2023-03-02T13:09:21.018Z,98417.72
2023-03-02T13:11:54.952Z,98407.00
2023-03-02T13:14:27.260Z,98397.25
2023-03-02T13:16:57.473Z,98399.41
2023-03-02T13:19:26.246Z,98393.06
2023-03-02T13:21:54.915Z,98391.41
2023-03-02T13:24:44.394Z,98384.19
2023-03-02T13:27:17.188Z,98381.91
2023-03-02T13:29:47.141Z,98370.00
2023-03-02T13:32:16.976Z,98364.09
2023-03-02T13:34:50.476Z,98370.94
2023-03-02T13:37:33.611Z,98348.50
2023-03-02T13:40:03.136Z,98352.25
2023-03-02T13:42:45.928Z,98344.06
2023-03-02T13:45:45.544Z,98355.91
2023-03-02T13:48:16.816Z,98348.50
2023-03-02T13:50:52.356Z,98343.16
2023-03-02T13:53:21.174Z,98350.50
2023-03-02T13:55:50.115Z,98339.59
2023-03-02T13:58:20.539Z,98336.16
2023-03-02T14:00:53.505Z,98332.22
2023-03-02T14:03:26.325Z,98332.13
2023-03-02T14:05:55.529Z,98320.69
2023-03-02T14:08:24.130Z,98315.00
2023-03-02T14:10:53.683Z,98320.53
2023-03-02T14:13:23.305Z,98308.00
2023-03-02T14:15:54.588Z,98309.28
2023-03-02T14:18:37.650Z,98312.88
2023-03-02T14:21:06.619Z,98308.19
2023-03-02T14:23:39.899Z,98311.91
2023-03-02T14:26:18.639Z,98296.19
2023-03-02T14:28:51.099Z,98296.50
2023-03-02T14:31:24.803Z,98300.78
2023-03-02T14:33:57.771Z,98291.47
2023-03-02T14:36:30.504Z,98285.84
2023-03-02T14:39:01.033Z,98284.47
2023-03-02T14:41:30.071Z,98278.28
2023-03-02T14:43:58.958Z,98271.50
2023-03-02T14:46:31.706Z,98265.72
2023-03-02T14:48:59.919Z,98270.81
2023-03-02T14:51:29.786Z,98256.88
2023-03-02T14:54:02.416Z,98261.63
2023-03-02T14:56:30.840Z,98251.03
2023-03-02T14:58:59.947Z,98250.06
2023-03-02T15:01:29.686Z,98255.38
2023-03-02T15:03:57.758Z,98241.78
2023-03-02T15:06:27.428Z,98242.19
2023-03-02T15:08:56.045Z,98245.44
2023-03-02T15:11:24.485Z,98249.69
2023-03-02T15:13:52.672Z,98239.50
2023-03-02T15:16:21.454Z,98228.41
2023-03-02T15:18:51.746Z,98237.38
2023-03-02T15:21:21.449Z,98234.50
2023-03-02T15:23:49.843Z,98245.88
2023-03-02T15:26:18.084Z,98236.41
2023-03-02T15:28:49.314Z,98235.00
2023-03-02T15:31:18.453Z,98225.78
2023-03-02T15:33:55.404Z,98233.16
2023-03-02T15:36:35.105Z,98230.03
2023-03-02T15:39:04.314Z,98231.06
2023-03-02T15:41:32.849Z,98236.59
2023-03-02T15:44:01.496Z,98229.53
2023-03-02T15:46:32.236Z,98224.81
2023-03-02T15:49:03.318Z,98232.09
2023-03-02T15:51:31.637Z,98230.63
2023-03-02T15:54:10.982Z,98235.78
2023-03-02T15:56:44.405Z,98234.19
2023-03-02T15:59:16.037Z,98232.53
2023-03-02T16:01:44.467Z,98228.53
2023-03-02T16:04:20.720Z,98229.28
2023-03-02T16:06:49.054Z,98219.56
2023-03-02T16:09:17.984Z,98223.69
2023-03-02T16:11:46.372Z,98217.78
2023-03-02T16:14:15.857Z,98217.34
2023-03-02T16:16:44.513Z,98220.81
2023-03-02T16:19:13.722Z,98219.94
2023-03-02T16:21:43.601Z,98210.91
2023-03-02T16:24:13.254Z,98210.91
2023-03-02T16:26:41.533Z,98209.34
2023-03-02T16:29:19.387Z,98195.72
2023-03-02T16:31:48.630Z,98205.06
2023-03-02T16:34:17.658Z,98201.63
2023-03-02T16:36:47.475Z,98206.34
2023-03-02T16:39:17.398Z,98196.16
2023-03-02T16:41:46.490Z,98203.94
2023-03-02T16:44:16.258Z,98192.81
2023-03-02T16:46:44.823Z,98185.31
2023-03-02T16:49:13.547Z,98182.75
2023-03-02T16:51:42.704Z,98183.59
2023-03-02T16:54:16.042Z,98185.69
2023-03-02T16:56:47.742Z,98181.47
2023-03-02T16:59:16.508Z,98182.78
2023-03-02T17:01:45.264Z,98173.66
2023-03-02T17:04:18.599Z,98180.09
2023-03-02T17:06:59.919Z,98176.28
2023-03-02T17:09:31.534Z,98170.44
2023-03-02T17:11:59.950Z,98162.13
2023-03-02T17:14:28.699Z,98160.91
2023-03-02T17:16:58.079Z,98173.41
2023-03-02T17:19:27.273Z,98169.31
2023-03-02T17:21:58.621Z,98173.38
2023-03-02T17:24:27.216Z,98164.09
2023-03-02T17:27:00.362Z,98162.78
2023-03-02T17:29:29.002Z,98178.56
2023-03-02T17:31:57.934Z,98171.78
2023-03-02T17:34:30.765Z,98168.72
2023-03-02T17:37:00.849Z,98171.00
2023-03-02T17:39:29.623Z,98171.03
2023-03-02T17:41:59.445Z,98171.78
2023-03-02T17:44:27.871Z,98171.91
2023-03-02T17:46:56.254Z,98169.63
2023-03-02T17:49:24.715Z,98173.31
2023-03-02T17:51:53.297Z,98162.47
2023-03-02T17:54:21.672Z,98170.75
2023-03-02T17:56:54.707Z,98174.94
2023-03-02T17:59:26.233Z,98166.41
2023-03-02T18:01:54.754Z,98170.50
2023-03-02T18:04:23.587Z,98167.03
2023-03-02T18:06:54.210Z,98173.09
2023-03-02T18:09:22.842Z,98168.41
2023-03-02T18:11:51.249Z,98173.00
2023-03-02T18:14:21.329Z,98166.34
2023-03-02T18:16:52.771Z,98164.34
2023-03-02T18:19:22.224Z,98161.38
2023-03-02T18:21:50.679Z,98160.00
2023-03-02T18:24:18.921Z,98167.13
2023-03-02T18:26:47.300Z,98163.88
2023-03-02T18:29:15.842Z,98158.19
2023-03-02T18:31:45.759Z,98152.78
2023-03-02T18:34:15.764Z,98158.06
2023-03-02T18:36:45.640Z,98147.13
2023-03-02T18:39:14.250Z,98147.47
2023-03-02T18:41:43.113Z,98162.91
2023-03-02T18:44:11.572Z,98142.63
2023-03-02T18:46:41.604Z,98143.91
2023-03-02T18:49:10.067Z,98147.56
2023-03-02T18:51:43.434Z,98148.34
2023-03-02T18:54:13.514Z,98152.03
2023-03-02T18:56:45.806Z,98156.53
2023-03-02T18:59:18.295Z,98144.56
2023-03-02T19:01:50.187Z,98157.34
2023-03-02T19:04:19.883Z,98143.63
2023-03-02T19:06:57.435Z,98154.47
2023-03-02T19:09:26.233Z,98152.38
2023-03-02T19:11:56.817Z,98140.75
2023-03-02T19:14:25.798Z,98142.53
2023-03-02T19:16:55.002Z,98146.59
2023-03-02T19:19:24.877Z,98132.06
2023-03-02T19:21:55.979Z,98142.31
2023-03-02T19:24:25.104Z,98142.38
2023-03-02T19:26:53.709Z,98128.63
2023-03-02T19:29:23.673Z,98125.72
2023-03-02T19:31:52.279Z,98127.84
2023-03-02T19:34:21.373Z,98135.31
2023-03-02T19:36:49.920Z,98115.56
2023-03-02T19:39:19.853Z,98109.94
2023-03-02T19:41:48.206Z,98117.25
2023-03-02T19:44:16.722Z,98112.25
2023-03-02T19:46:45.330Z,98112.00
2023-03-02T19:49:13.932Z,98107.25
2023-03-02T19:51:42.388Z,98116.34
2023-03-02T19:54:10.982Z,98102.63
2023-03-02T19:56:45.841Z,98099.13
2023-03-02T19:59:14.405Z,98099.38
2023-03-02T20:01:42.882Z,98102.25
2023-03-02T20:04:10.986Z,98101.03
2023-03-02T20:06:39.245Z,98094.28
2023-03-02T20:09:08.340Z,98090.16
2023-03-02T20:11:38.414Z,98094.69
2023-03-02T20:14:08.074Z,98095.00
2023-03-02T20:16:36.544Z,98085.94
2023-03-02T20:19:04.810Z,98081.53
2023-03-02T20:21:33.278Z,98084.81
2023-03-02T20:24:01.790Z,98091.41
2023-03-02T20:26:30.708Z,98080.13
2023-03-02T20:29:01.356Z,98084.13
2023-03-02T20:31:33.441Z,98084.41
2023-03-02T20:34:02.395Z,98077.53
2023-03-02T20:36:33.238Z,98087.81
2023-03-02T20:39:06.782Z,98084.00
2023-03-02T20:41:41.728Z,98079.75
2023-03-02T20:44:11.845Z,98074.72
2023-03-02T20:46:44.548Z,98077.47
2023-03-02T20:49:15.320Z,98064.56
2023-03-02T20:51:45.516Z,98060.41
2023-03-02T20:54:13.892Z,98065.88
2023-03-02T20:56:42.369Z,98058.06
2023-03-02T20:59:10.581Z,98048.41
2023-03-02T21:01:38.839Z,98055.88
2023-03-02T21:04:08.573Z,98052.78
2023-03-02T21:06:37.756Z,98048.75
2023-03-02T21:09:08.609Z,98056.59
2023-03-02T21:11:37.497Z,98055.72
2023-03-02T21:14:05.884Z,98057.31
2023-03-02T21:16:36.474Z,98051.13
2023-03-02T21:19:04.767Z,98054.41
2023-03-02T21:21:41.349Z,98058.13
2023-03-02T21:24:11.115Z,98056.38
2023-03-02T21:26:39.458Z,98048.03
2023-03-02T21:29:07.955Z,98046.56
2023-03-02T21:31:36.158Z,98050.88
2023-03-02T21:34:04.712Z,98041.09
2023-03-02T21:36:34.363Z,98048.25
2023-03-02T21:39:03.035Z,98040.50
2023-03-02T21:41:31.348Z,98041.22
2023-03-02T21:43:59.762Z,98034.94
2023-03-02T21:46:28.111Z,98032.19
2023-03-02T21:48:56.639Z,98032.34
2023-03-02T21:51:24.979Z,98040.75
2023-03-02T21:53:54.688Z,98027.59
2023-03-02T21:56:23.713Z,98022.25
2023-03-02T21:58:52.909Z,98012.63
2023-03-02T22:01:21.103Z,98026.66
2023-03-02T22:03:50.132Z,98012.19
2023-03-02T22:06:18.965Z,98015.59
2023-03-02T22:08:47.257Z,98007.00
2023-03-02T22:11:20.510Z,98019.88
2023-03-02T22:13:49.443Z,98016.22
2023-03-02T22:16:18.390Z,98012.00
2023-03-02T22:18:47.279Z,98008.19
2023-03-02T22:21:22.193Z,98005.84
2023-03-02T22:23:50.494Z,98003.22
2023-03-02T22:26:20.071Z,97995.38
2023-03-02T22:28:48.332Z,97998.91
2023-03-02T22:31:20.240Z,97995.22
2023-03-02T22:33:48.846Z,97990.09
2023-03-02T22:36:20.427Z,97986.06
2023-03-02T22:38:48.904Z,97992.75
2023-03-02T22:41:18.546Z,97995.34
2023-03-02T22:43:49.656Z,97998.69
2023-03-02T22:46:20.416Z,97993.00
2023-03-02T22:48:49.862Z,97990.03
2023-03-02T22:51:19.755Z,97973.91
2023-03-02T22:53:49.412Z,97978.41
2023-03-02T22:56:32.418Z,97977.28
2023-03-02T22:59:04.981Z,97981.09
2023-03-02T23:01:39.477Z,97982.78
2023-03-02T23:04:14.693Z,97992.88
2023-03-02T23:06:46.432Z,97983.63
2023-03-02T23:09:17.078Z,97983.28
2023-03-02T23:11:45.808Z,97981.59
2023-03-02T23:14:19.553Z,97980.84
2023-03-02T23:16:50.038Z,97987.97
2023-03-02T23:19:18.298Z,97970.72
2023-03-02T23:21:47.339Z,97969.28
2023-03-02T23:24:15.639Z,97966.88
2023-03-02T23:26:43.733Z,97971.06
2023-03-02T23:29:12.026Z,97953.94
2023-03-02T23:31:41.666Z,97949.56
2023-03-02T23:34:09.784Z,97950.66
2023-03-02T23:36:38.220Z,97947.66
2023-03-02T23:39:06.829Z,97956.84
2023-03-02T23:41:35.224Z,97940.34
2023-03-02T23:44:03.560Z,97941.25
2023-03-02T23:46:31.782Z,97931.22
2023-03-02T23:49:01.381Z,97940.22
2023-03-02T23:51:29.705Z,97930.19
2023-03-02T23:53:58.003Z,97929.09
2023-03-02T23:56:26.393Z,97921.97
2023-03-02T23:58:54.603Z,97929.34
